Главная страница
METAR-TAF:

METAR-TAF

Аэропорты :

Бамако, Мали

широта: 12-32N, долгота: 007-57W, высота над уровнем моря: 380 м

Текущие метеонаблюдения

Эта сводка был подготовлена 36 минут назад, в 07:30 UTC
Ветер 4 Узел от северо-северо-восточный
Температура 25°C
Влажность 69%
Давление 1013 hPa
Видимость 10 км и более
небольшая облачность на высоте 2000 фута

METAR: GABS 200730Z 03004KT 9999 FEW020 25/19 Q1013 NOSIG

Время: 08:06 (08:06 UTC)

Прогноз

Эта сводка был подготовлена 2 часа и 26 минут назад, в 05:40 UTC
Прогноз действительный с 20-го 06 UTC до 21-го 12 UTC
Ветер 6 Узел от юго-западный
Видимость 10 км и более
небольшая облачность на высоте 2000 фута
Вероятность 40% :
временами
С 20-го 15 UTC до 20-го 21 UTC
Отдельные облака на высоте 2000 фута
небольшая облачность на высоте 3000 фута, Кучево-дождевые.
гроза

TAF: GABS 200540Z 2006/2112 23006KT 9999 FEW020 PROB40 TEMPO 2015/2021 TS SCT020 FEW030CB

Метеонаблюдения и прогнозы для более 4000 аэропортов (сводки METAR и TAF).

Имеющиеся станции представлены на карте желтыми и красными точками.

Чтобы увидеть название станции, наведите на нее мышь.

Затем щелкните, чтобы увидеть метеонаблюдения и метеопрогнозы.

Управление картой: чтобы увеличить масштаб, щелкните зеленые кнопки с черным крестиком; чтобы уменьшить масштаб, щелкните зеленую кнопку с тире; для просмотра соседних карт щелкайте зеленые стрелки.


METAR-TAF: